Time,TemperatureF,DewpointF,PressureIn,WindDirection,WindDirectionDegrees,WindSpeedMPH,WindSpeedGustMPH,Humidity,HourlyPrecipIn,Conditions,Clouds,dailyrainin,SolarRadiationWatts/m^2,SoftwareType,DateUTC
2013-02-23 00:01:00,23.8,22.0,29.79,NE,55,0.0,0.0,94,0.00,,,0.00,0,weatherlink.com 1.10,2013-02-23 05:01:00,
2013-02-23 00:16:00,23.8,22.0,29.79,NE,55,0.0,0.0,94,0.00,,,0.00,0,weatherlink.com 1.10,2013-02-23 05:16:00,
2013-02-23 00:31:00,23.8,22.0,29.78,NE,55,0.0,0.0,94,0.00,,,0.00,0,weatherlink.com 1.10,2013-02-23 05:31:00,
2013-02-23 00:46:00,23.8,22.0,29.78,NE,55,0.0,0.0,94,0.00,,,0.00,0,weatherlink.com 1.10,2013-02-23 05:46:00,
2013-02-23 01:01:00,23.9,23.0,29.77,NE,55,0.0,0.0,94,0.00,,,0.00,0,weatherlink.com 1.10,2013-02-23 06:01:00,
2013-02-23 01:16:00,23.9,23.0,29.76,NE,55,0.0,0.0,94,0.00,,,0.00,0,weatherlink.com 1.10,2013-02-23 06:16:00,
2013-02-23 01:31:00,23.8,22.0,29.76,NE,55,0.0,0.0,94,0.00,,,0.00,0,weatherlink.com 1.10,2013-02-23 06:31:00,
2013-02-23 01:47:00,23.5,22.0,29.75,NE,55,0.0,0.0,93,0.00,,,0.00,0,weatherlink.com 1.10,2013-02-23 06:47:00,
2013-02-23 02:01:00,23.4,22.0,29.75,NE,55,0.0,0.0,93,0.00,,,0.00,0,weatherlink.com 1.10,2013-02-23 07:01:00,
2013-02-23 02:16:00,23.1,21.0,29.75,NE,55,0.0,0.0,93,0.00,,,0.00,0,weatherlink.com 1.10,2013-02-23 07:16:00,
2013-02-23 02:31:00,22.8,21.0,29.75,NE,55,0.0,0.0,93,0.00,,,0.00,0,weatherlink.com 1.10,2013-02-23 07:31:00,
2013-02-23 02:46:00,22.5,21.0,29.74,NE,55,0.0,0.0,93,0.00,,,0.00,0,weatherlink.com 1.10,2013-02-23 07:46:00,
2013-02-23 03:01:00,22.0,20.0,29.74,NE,55,0.0,0.0,93,0.00,,,0.00,0,weatherlink.com 1.10,2013-02-23 08:01:00,
2013-02-23 03:16:00,21.6,20.0,29.74,NE,55,0.0,0.0,93,0.00,,,0.00,0,weatherlink.com 1.10,2013-02-23 08:16:00,
2013-02-23 03:31:00,21.2,19.0,29.73,NE,55,0.0,0.0,92,0.00,,,0.00,0,weatherlink.com 1.10,2013-02-23 08:31:00,
2013-02-23 03:46:00,21.0,19.0,29.73,NE,55,0.0,0.0,93,0.00,,,0.00,0,weatherlink.com 1.10,2013-02-23 08:46:00,
2013-02-23 04:01:00,21.1,19.0,29.73,NE,55,0.0,0.0,93,0.00,,,0.00,0,weatherlink.com 1.10,2013-02-23 09:01:00,
2013-02-23 04:16:00,21.3,20.0,29.73,NE,55,0.0,0.0,93,0.00,,,0.00,0,weatherlink.com 1.10,2013-02-23 09:16:00,
2013-02-23 04:31:00,21.4,20.0,29.72,NE,55,0.0,0.0,93,0.00,,,0.00,0,weatherlink.com 1.10,2013-02-23 09:31:00,
2013-02-23 04:46:00,21.5,20.0,29.73,NE,55,0.0,0.0,93,0.00,,,0.00,0,weatherlink.com 1.10,2013-02-23 09:46:00,
2013-02-23 05:01:00,21.6,20.0,29.72,NE,55,0.0,0.0,93,0.00,,,0.00,0,weatherlink.com 1.10,2013-02-23 10:01:00,
2013-02-23 05:17:00,21.7,20.0,29.72,NE,55,0.0,0.0,93,0.00,,,0.00,0,weatherlink.com 1.10,2013-02-23 10:17:00,
2013-02-23 05:31:00,21.6,20.0,29.72,NE,55,0.0,0.0,93,0.00,,,0.00,0,weatherlink.com 1.10,2013-02-23 10:31:00,
2013-02-23 05:46:00,21.5,20.0,29.72,NE,55,0.0,0.0,93,0.00,,,0.00,0,weatherlink.com 1.10,2013-02-23 10:46:00,
2013-02-23 06:01:00,21.3,20.0,29.72,NE,55,0.0,0.0,93,0.00,,,0.00,0,weatherlink.com 1.10,2013-02-23 11:01:00,
2013-02-23 06:16:00,21.0,19.0,29.72,NE,55,0.0,0.0,92,0.00,,,0.00,0,weatherlink.com 1.10,2013-02-23 11:16:00,
2013-02-23 06:31:00,20.4,19.0,29.72,NE,55,0.0,0.0,92,0.00,,,0.00,0,weatherlink.com 1.10,2013-02-23 11:31:00,
2013-02-23 07:02:00,19.4,18.0,29.71,NE,55,0.0,0.0,92,0.00,,,0.00,0,weatherlink.com 1.10,2013-02-23 12:02:00,
2013-02-23 07:16:00,19.0,17.0,29.71,NE,55,0.0,0.0,92,0.00,,,0.00,0,weatherlink.com 1.10,2013-02-23 12:16:00,
2013-02-23 07:31:00,18.5,17.0,29.72,NE,55,0.0,0.0,92,0.00,,,0.00,0,weatherlink.com 1.10,2013-02-23 12:31:00,
2013-02-23 07:46:00,18.0,16.0,29.72,NE,55,0.0,0.0,91,0.00,,,0.00,0,weatherlink.com 1.10,2013-02-23 12:46:00,
2013-02-23 08:02:00,17.7,16.0,29.72,NE,55,0.0,0.0,92,0.00,,,0.00,7,weatherlink.com 1.10,2013-02-23 13:02:00,
2013-02-23 08:16:00,18.0,16.0,29.72,NE,55,0.0,0.0,92,0.00,,,0.00,11,weatherlink.com 1.10,2013-02-23 13:16:00,
2013-02-23 08:32:00,18.4,17.0,29.72,NE,55,0.0,0.0,93,0.00,,,0.00,14,weatherlink.com 1.10,2013-02-23 13:32:00,
2013-02-23 08:47:00,19.2,18.0,29.72,NE,55,0.0,0.0,93,0.00,,,0.00,21,weatherlink.com 1.10,2013-02-23 13:47:00,
2013-02-23 09:02:00,20.5,19.0,29.72,NE,55,0.0,0.0,94,0.00,,,0.00,28,weatherlink.com 1.10,2013-02-23 14:02:00,
2013-02-23 09:17:00,22.0,21.0,29.72,East,101,0.0,0.0,94,0.00,,,0.00,35,weatherlink.com 1.10,2013-02-23 14:17:00,
2013-02-23 09:32:00,23.9,23.0,29.72,ESE,123,0.0,0.0,94,0.00,,,0.00,46,weatherlink.com 1.10,2013-02-23 14:32:00,
2013-02-23 09:47:00,25.6,24.0,29.72,ESE,123,0.0,0.0,94,0.00,,,0.00,56,weatherlink.com 1.10,2013-02-23 14:47:00,
2013-02-23 10:02:00,26.8,25.0,29.72,SE,139,0.0,0.0,92,0.00,,,0.00,56,weatherlink.com 1.10,2013-02-23 15:02:00,
2013-02-23 10:17:00,28.0,26.0,29.71,SE,139,0.0,0.0,92,0.00,,,0.00,67,weatherlink.com 1.10,2013-02-23 15:17:00,
2013-02-23 10:32:00,29.6,28.0,29.71,SE,139,0.0,0.0,92,0.00,,,0.00,79,weatherlink.com 1.10,2013-02-23 15:32:00,
2013-02-23 10:47:00,30.7,28.0,29.71,SE,139,2.0,3.0,90,0.00,,,0.00,98,weatherlink.com 1.10,2013-02-23 15:47:00,
2013-02-23 11:02:00,32.0,29.0,29.71,SE,139,0.0,2.0,88,0.00,,,0.00,107,weatherlink.com 1.10,2013-02-23 16:02:00,
2013-02-23 11:17:00,32.9,30.0,29.71,SE,139,1.0,3.0,87,0.02,,,0.02,93,weatherlink.com 1.10,2013-02-23 16:17:00,
2013-02-23 11:32:00,32.6,29.0,29.71,SE,139,0.0,2.0,87,0.04,,,0.04,120,weatherlink.com 1.10,2013-02-23 16:32:00,
2013-02-23 11:47:00,33.0,30.0,29.70,SE,139,2.0,2.0,87,0.05,,,0.05,234,weatherlink.com 1.10,2013-02-23 16:47:00,
2013-02-23 12:02:00,32.8,29.0,29.70,NE,55,0.0,4.0,85,0.06,,,0.06,146,weatherlink.com 1.10,2013-02-23 17:02:00,
2013-02-23 12:17:00,32.3,28.0,29.71,SSE,165,0.0,1.0,85,0.05,,,0.07,151,weatherlink.com 1.10,2013-02-23 17:17:00,
2013-02-23 12:32:00,32.6,29.0,29.70,SE,134,1.0,3.0,85,0.04,,,0.08,216,weatherlink.com 1.10,2013-02-23 17:32:00,
2013-02-23 12:47:00,32.9,29.0,29.70,SE,134,1.0,3.0,84,0.04,,,0.09,204,weatherlink.com 1.10,2013-02-23 17:47:00,
2013-02-23 13:02:00,32.9,29.0,29.70,SE,133,1.0,3.0,85,0.04,,,0.10,186,weatherlink.com 1.10,2013-02-23 18:02:00,
2013-02-23 13:17:00,33.1,29.0,29.70,SSE,167,4.0,4.0,84,0.04,,,0.11,264,weatherlink.com 1.10,2013-02-23 18:17:00,
2013-02-23 13:32:00,33.0,28.0,29.70,South,178,2.0,5.0,83,0.04,,,0.12,169,weatherlink.com 1.10,2013-02-23 18:32:00,
2013-02-23 13:47:00,33.1,29.0,29.70,South,171,2.0,4.0,84,0.04,,,0.13,322,weatherlink.com 1.10,2013-02-23 18:47:00,
2013-02-23 14:02:00,33.6,29.0,29.70,SSE,155,0.0,6.0,83,0.04,,,0.14,116,weatherlink.com 1.10,2013-02-23 19:02:00,
2013-02-23 14:17:00,33.4,29.0,29.71,SSE,155,0.0,1.0,84,0.04,,,0.15,72,weatherlink.com 1.10,2013-02-23 19:17:00,
2013-02-23 14:32:00,32.7,29.0,29.71,NE,44,3.0,4.0,87,0.04,,,0.16,91,weatherlink.com 1.10,2013-02-23 19:32:00,
2013-02-23 14:47:00,32.3,29.0,29.71,NE,44,0.0,1.0,88,0.04,,,0.17,98,weatherlink.com 1.10,2013-02-23 19:47:00,
2013-02-23 15:02:00,32.3,30.0,29.72,NE,44,0.0,2.0,89,0.03,,,0.17,97,weatherlink.com 1.10,2013-02-23 20:02:00,
2013-02-23 15:17:00,32.2,29.0,29.72,NE,44,0.0,1.0,88,0.03,,,0.18,139,weatherlink.com 1.10,2013-02-23 20:17:00,
2013-02-23 15:32:00,32.7,30.0,29.72,NE,44,0.0,1.0,89,0.02,,,0.18,165,weatherlink.com 1.10,2013-02-23 20:32:00,
2013-02-23 15:47:00,33.2,30.0,29.72,NE,44,0.0,2.0,87,0.02,,,0.19,125,weatherlink.com 1.10,2013-02-23 20:47:00,
2013-02-23 16:02:00,33.1,30.0,29.73,NE,44,0.0,2.0,87,0.03,,,0.20,70,weatherlink.com 1.10,2013-02-23 21:02:00,
2013-02-23 16:17:00,33.0,30.0,29.73,NE,36,0.0,3.0,88,0.02,,,0.20,90,weatherlink.com 1.10,2013-02-23 21:17:00,
2013-02-23 16:32:00,33.0,30.0,29.73,NE,36,2.0,2.0,89,0.02,,,0.20,90,weatherlink.com 1.10,2013-02-23 21:32:00,
2013-02-23 16:47:00,33.0,30.0,29.73,NNE,31,1.0,3.0,89,0.02,,,0.21,69,weatherlink.com 1.10,2013-02-23 21:47:00,
2013-02-23 17:02:00,32.7,30.0,29.74,NNE,29,0.0,3.0,90,0.01,,,0.21,42,weatherlink.com 1.10,2013-02-23 22:02:00,
2013-02-23 17:17:00,32.4,30.0,29.74,NNE,29,0.0,3.0,91,0.01,,,0.21,28,weatherlink.com 1.10,2013-02-23 22:17:00,
2013-02-23 17:32:00,31.7,29.0,29.73,North,5,1.0,3.0,91,0.01,,,0.21,16,weatherlink.com 1.10,2013-02-23 22:32:00,
2013-02-23 17:47:00,31.1,29.0,29.74,North,5,0.0,2.0,92,0.01,,,0.22,9,weatherlink.com 1.10,2013-02-23 22:47:00,
2013-02-23 18:02:00,31.1,29.0,29.75,North,5,0.0,2.0,93,0.01,,,0.22,0,weatherlink.com 1.10,2013-02-23 23:02:00,
2013-02-23 18:17:00,31.1,29.0,29.75,NNW,338,0.0,3.0,93,0.01,,,0.22,0,weatherlink.com 1.10,2013-02-23 23:17:00,
2013-02-23 18:32:00,30.8,29.0,29.76,NW,319,1.0,5.0,94,0.01,,,0.22,0,weatherlink.com 1.10,2013-02-23 23:32:00,
2013-02-23 18:47:00,30.6,29.0,29.76,NW,319,1.0,4.0,93,0.00,,,0.22,0,weatherlink.com 1.10,2013-02-23 23:47:00,
2013-02-23 19:02:00,30.5,29.0,29.77,NW,318,0.0,5.0,94,0.00,,,0.22,0,weatherlink.com 1.10,2013-02-24 00:02:00,
2013-02-23 19:17:00,30.3,29.0,29.77,NW,318,0.0,2.0,94,0.00,,,0.22,0,weatherlink.com 1.10,2013-02-24 00:17:00,
2013-02-23 19:32:00,30.2,29.0,29.78,NW,318,1.0,3.0,94,0.00,,,0.22,0,weatherlink.com 1.10,2013-02-24 00:32:00,
2013-02-23 19:47:00,30.1,29.0,29.78,NW,318,0.0,2.0,94,0.00,,,0.22,0,weatherlink.com 1.10,2013-02-24 00:47:00,
2013-02-23 20:03:00,30.1,29.0,29.78,NNE,16,0.0,4.0,94,0.00,,,0.22,0,weatherlink.com 1.10,2013-02-24 01:03:00,
2013-02-23 20:18:00,29.9,28.0,29.79,NNW,334,1.0,2.0,94,0.00,,,0.22,0,weatherlink.com 1.10,2013-02-24 01:18:00,
2013-02-23 20:33:00,29.8,28.0,29.79,NNW,331,2.0,3.0,94,0.00,,,0.22,0,weatherlink.com 1.10,2013-02-24 01:33:00,
2013-02-23 20:48:00,29.7,28.0,29.79,NNW,331,2.0,3.0,94,0.00,,,0.22,0,weatherlink.com 1.10,2013-02-24 01:48:00,
2013-02-23 21:03:00,29.7,28.0,29.79,NNW,331,1.0,2.0,94,0.00,,,0.22,0,weatherlink.com 1.10,2013-02-24 02:03:00,
2013-02-23 21:18:00,29.5,28.0,29.80,NNW,327,0.0,3.0,94,0.00,,,0.22,0,weatherlink.com 1.10,2013-02-24 02:18:00,
2013-02-23 21:33:00,29.5,28.0,29.80,NW,323,0.0,4.0,94,0.00,,,0.22,0,weatherlink.com 1.10,2013-02-24 02:33:00,
2013-02-23 21:48:00,29.5,28.0,29.80,NW,323,0.0,0.0,94,0.00,,,0.22,0,weatherlink.com 1.10,2013-02-24 02:48:00,
2013-02-23 22:03:00,29.4,28.0,29.80,NW,323,0.0,0.0,94,0.00,,,0.22,0,weatherlink.com 1.10,2013-02-24 03:03:00,
2013-02-23 22:33:00,29.3,28.0,29.80,NNE,28,0.0,0.0,94,0.00,,,0.22,0,weatherlink.com 1.10,2013-02-24 03:33:00,
2013-02-23 22:48:00,29.2,28.0,29.81,NW,319,0.0,2.0,94,0.00,,,0.22,0,weatherlink.com 1.10,2013-02-24 03:48:00,
2013-02-23 23:03:00,29.2,28.0,29.81,North,355,2.0,4.0,94,0.00,,,0.22,0,weatherlink.com 1.10,2013-02-24 04:03:00,
2013-02-23 23:18:00,29.2,28.0,29.81,NW,317,0.0,3.0,94,0.00,,,0.22,0,weatherlink.com 1.10,2013-02-24 04:18:00,
2013-02-23 23:33:00,29.1,28.0,29.81,NW,317,0.0,0.0,94,0.00,,,0.22,0,weatherlink.com 1.10,2013-02-24 04:33:00,
2013-02-23 23:48:00,29.0,28.0,29.81,NW,317,0.0,0.0,94,0.00,,,0.22,0,weatherlink.com 1.10,2013-02-24 04:48:00,